sensor_id;sensor_type;location;lat;lon;timestamp;pressure;altitude;pressure_sealevel;temperature;humidity
42945;BME280;28584;42.636;23.294;2023-09-18T00:01:37;67539.38;;;-142.31;100.00
42945;BME280;28584;42.636;23.294;2023-09-18T00:04:05;67539.38;;;-142.31;100.00
42945;BME280;28584;42.636;23.294;2023-09-18T00:06:32;67539.38;;;-142.31;100.00
42945;BME280;28584;42.636;23.294;2023-09-18T00:08:57;67539.38;;;-142.31;100.00
42945;BME280;28584;42.636;23.294;2023-09-18T00:11:23;67539.38;;;-142.31;100.00
42945;BME280;28584;42.636;23.294;2023-09-18T00:13:48;67539.38;;;-142.31;100.00
42945;BME280;28584;42.636;23.294;2023-09-18T00:16:14;67539.38;;;-142.31;100.00
42945;BME280;28584;42.636;23.294;2023-09-18T00:18:39;67539.38;;;-142.31;100.00
42945;BME280;28584;42.636;23.294;2023-09-18T00:21:04;67539.38;;;-142.31;100.00
42945;BME280;28584;42.636;23.294;2023-09-18T00:23:32;67539.38;;;-142.31;100.00
42945;BME280;28584;42.636;23.294;2023-09-18T00:26:00;67539.38;;;-142.31;100.00
42945;BME280;28584;42.636;23.294;2023-09-18T00:28:26;67539.38;;;-142.31;100.00
42945;BME280;28584;42.636;23.294;2023-09-18T00:30:51;67539.38;;;-142.31;100.00
42945;BME280;28584;42.636;23.294;2023-09-18T00:33:17;67539.38;;;-142.31;100.00
42945;BME280;28584;42.636;23.294;2023-09-18T00:35:48;67539.38;;;-142.31;100.00
42945;BME280;28584;42.636;23.294;2023-09-18T00:38:14;67539.38;;;-142.31;100.00
42945;BME280;28584;42.636;23.294;2023-09-18T00:40:40;67539.38;;;-142.31;100.00
42945;BME280;28584;42.636;23.294;2023-09-18T00:43:05;67539.38;;;-142.31;100.00
42945;BME280;28584;42.636;23.294;2023-09-18T00:45:31;67539.38;;;-142.31;100.00
42945;BME280;28584;42.636;23.294;2023-09-18T00:47:56;67539.38;;;-142.31;100.00
42945;BME280;28584;42.636;23.294;2023-09-18T00:50:22;67539.38;;;-142.31;100.00
42945;BME280;28584;42.636;23.294;2023-09-18T00:52:49;67539.38;;;-142.31;100.00
42945;BME280;28584;42.636;23.294;2023-09-18T00:55:14;67539.38;;;-142.31;100.00
42945;BME280;28584;42.636;23.294;2023-09-18T00:57:41;67539.38;;;-142.31;100.00
42945;BME280;28584;42.636;23.294;2023-09-18T01:00:08;67539.38;;;-142.31;100.00
42945;BME280;28584;42.636;23.294;2023-09-18T01:02:34;67539.38;;;-142.31;100.00
42945;BME280;28584;42.636;23.294;2023-09-18T01:05:00;67539.38;;;-142.31;100.00
42945;BME280;28584;42.636;23.294;2023-09-18T01:07:26;67539.38;;;-142.31;100.00
42945;BME280;28584;42.636;23.294;2023-09-18T01:09:53;67539.38;;;-142.31;100.00
42945;BME280;28584;42.636;23.294;2023-09-18T01:12:34;67539.38;;;-142.31;100.00
42945;BME280;28584;42.636;23.294;2023-09-18T01:17:40;67539.38;;;-142.31;100.00
42945;BME280;28584;42.636;23.294;2023-09-18T01:20:09;67539.38;;;-142.31;100.00
42945;BME280;28584;42.636;23.294;2023-09-18T01:22:35;67539.38;;;-142.31;100.00
42945;BME280;28584;42.636;23.294;2023-09-18T01:25:01;67539.38;;;-142.31;100.00
42945;BME280;28584;42.636;23.294;2023-09-18T01:27:26;67539.38;;;-142.31;100.00
42945;BME280;28584;42.636;23.294;2023-09-18T01:29:51;67539.38;;;-142.31;100.00
42945;BME280;28584;42.636;23.294;2023-09-18T01:32:18;67539.38;;;-142.31;100.00
42945;BME280;28584;42.636;23.294;2023-09-18T01:34:48;67539.38;;;-142.31;100.00
42945;BME280;28584;42.636;23.294;2023-09-18T01:37:16;67539.38;;;-142.31;100.00
42945;BME280;28584;42.636;23.294;2023-09-18T01:39:44;67539.38;;;-142.31;100.00
42945;BME280;28584;42.636;23.294;2023-09-18T01:42:11;67539.38;;;-142.31;100.00
42945;BME280;28584;42.636;23.294;2023-09-18T01:44:36;67539.38;;;-142.31;100.00
42945;BME280;28584;42.636;23.294;2023-09-18T01:47:08;67539.38;;;-142.31;100.00
42945;BME280;28584;42.636;23.294;2023-09-18T01:49:38;67539.38;;;-142.31;100.00
42945;BME280;28584;42.636;23.294;2023-09-18T01:52:05;67539.38;;;-142.31;100.00
42945;BME280;28584;42.636;23.294;2023-09-18T01:54:31;67539.38;;;-142.31;100.00
42945;BME280;28584;42.636;23.294;2023-09-18T01:56:57;67539.38;;;-142.31;100.00
42945;BME280;28584;42.636;23.294;2023-09-18T01:59:23;67539.38;;;-142.31;100.00
42945;BME280;28584;42.636;23.294;2023-09-18T02:01:49;67539.38;;;-142.31;100.00
42945;BME280;28584;42.636;23.294;2023-09-18T02:04:16;67539.38;;;-142.31;100.00
42945;BME280;28584;42.636;23.294;2023-09-18T02:06:42;67539.38;;;-142.31;100.00
42945;BME280;28584;42.636;23.294;2023-09-18T02:09:08;67539.38;;;-142.31;100.00
42945;BME280;28584;42.636;23.294;2023-09-18T02:11:36;67539.38;;;-142.31;100.00
42945;BME280;28584;42.636;23.294;2023-09-18T02:14:02;67539.38;;;-142.31;100.00
42945;BME280;28584;42.636;23.294;2023-09-18T02:16:29;67539.38;;;-142.31;100.00
42945;BME280;28584;42.636;23.294;2023-09-18T02:18:55;67539.38;;;-142.31;100.00
42945;BME280;28584;42.636;23.294;2023-09-18T02:21:22;67539.38;;;-142.31;100.00
42945;BME280;28584;42.636;23.294;2023-09-18T02:23:51;67539.38;;;-142.31;100.00
42945;BME280;28584;42.636;23.294;2023-09-18T02:26:17;67539.38;;;-142.31;100.00
42945;BME280;28584;42.636;23.294;2023-09-18T02:28:43;67539.38;;;-142.31;100.00
42945;BME280;28584;42.636;23.294;2023-09-18T02:31:08;67539.38;;;-142.31;100.00
42945;BME280;28584;42.636;23.294;2023-09-18T02:33:34;67539.38;;;-142.31;100.00
42945;BME280;28584;42.636;23.294;2023-09-18T02:35:59;67539.38;;;-142.31;100.00
42945;BME280;28584;42.636;23.294;2023-09-18T02:38:26;67539.38;;;-142.31;100.00
42945;BME280;28584;42.636;23.294;2023-09-18T02:40:51;67539.38;;;-142.31;100.00
42945;BME280;28584;42.636;23.294;2023-09-18T02:43:18;67539.38;;;-142.31;100.00
42945;BME280;28584;42.636;23.294;2023-09-18T02:45:43;67539.38;;;-142.31;100.00
42945;BME280;28584;42.636;23.294;2023-09-18T02:48:11;67539.38;;;-142.31;100.00
42945;BME280;28584;42.636;23.294;2023-09-18T02:50:36;67539.38;;;-142.31;100.00
42945;BME280;28584;42.636;23.294;2023-09-18T02:53:02;67539.38;;;-142.31;100.00
42945;BME280;28584;42.636;23.294;2023-09-18T02:55:28;67539.38;;;-142.31;100.00
42945;BME280;28584;42.636;23.294;2023-09-18T02:57:54;67539.38;;;-142.31;100.00
42945;BME280;28584;42.636;23.294;2023-09-18T03:00:19;67539.38;;;-142.31;100.00
42945;BME280;28584;42.636;23.294;2023-09-18T03:02:44;67539.38;;;-142.31;100.00
42945;BME280;28584;42.636;23.294;2023-09-18T03:05:10;67539.38;;;-142.31;100.00
42945;BME280;28584;42.636;23.294;2023-09-18T03:07:36;67539.38;;;-142.31;100.00
42945;BME280;28584;42.636;23.294;2023-09-18T03:10:02;67539.38;;;-142.31;100.00
42945;BME280;28584;42.636;23.294;2023-09-18T03:12:27;67539.38;;;-142.31;100.00
42945;BME280;28584;42.636;23.294;2023-09-18T03:14:53;67539.38;;;-142.31;100.00
42945;BME280;28584;42.636;23.294;2023-09-18T03:17:19;67539.38;;;-142.31;100.00
42945;BME280;28584;42.636;23.294;2023-09-18T03:19:48;67539.38;;;-142.31;100.00
42945;BME280;28584;42.636;23.294;2023-09-18T03:22:14;67539.38;;;-142.31;100.00
42945;BME280;28584;42.636;23.294;2023-09-18T03:24:39;67539.38;;;-142.31;100.00
42945;BME280;28584;42.636;23.294;2023-09-18T03:27:05;67539.38;;;-142.31;100.00
42945;BME280;28584;42.636;23.294;2023-09-18T03:29:30;67539.38;;;-142.31;100.00
42945;BME280;28584;42.636;23.294;2023-09-18T03:31:56;67539.38;;;-142.31;100.00
42945;BME280;28584;42.636;23.294;2023-09-18T03:34:23;67539.38;;;-142.31;100.00
42945;BME280;28584;42.636;23.294;2023-09-18T03:36:52;67539.38;;;-142.31;100.00
42945;BME280;28584;42.636;23.294;2023-09-18T03:39:17;67539.38;;;-142.31;100.00
42945;BME280;28584;42.636;23.294;2023-09-18T03:41:43;67539.38;;;-142.31;100.00
42945;BME280;28584;42.636;23.294;2023-09-18T03:44:08;67539.38;;;-142.31;100.00
42945;BME280;28584;42.636;23.294;2023-09-18T03:46:35;67539.38;;;-142.31;100.00
42945;BME280;28584;42.636;23.294;2023-09-18T03:49:01;67539.38;;;-142.31;100.00
42945;BME280;28584;42.636;23.294;2023-09-18T03:51:26;67539.38;;;-142.31;100.00
42945;BME280;28584;42.636;23.294;2023-09-18T03:53:52;67539.38;;;-142.31;100.00
42945;BME280;28584;42.636;23.294;2023-09-18T03:56:17;67539.38;;;-142.31;100.00
42945;BME280;28584;42.636;23.294;2023-09-18T03:58:43;67539.38;;;-142.31;100.00
42945;BME280;28584;42.636;23.294;2023-09-18T04:01:11;67539.38;;;-142.31;100.00
42945;BME280;28584;42.636;23.294;2023-09-18T04:03:37;67539.38;;;-142.31;100.00
42945;BME280;28584;42.636;23.294;2023-09-18T04:06:02;67539.38;;;-142.31;100.00
42945;BME280;28584;42.636;23.294;2023-09-18T04:08:28;67539.38;;;-142.31;100.00
42945;BME280;28584;42.636;23.294;2023-09-18T04:10:54;67539.38;;;-142.31;100.00
42945;BME280;28584;42.636;23.294;2023-09-18T04:13:23;67539.38;;;-142.31;100.00
42945;BME280;28584;42.636;23.294;2023-09-18T04:15:49;67539.38;;;-142.31;100.00
42945;BME280;28584;42.636;23.294;2023-09-18T04:18:14;67539.38;;;-142.31;100.00
42945;BME280;28584;42.636;23.294;2023-09-18T04:20:39;67539.38;;;-142.31;100.00
42945;BME280;28584;42.636;23.294;2023-09-18T04:23:21;67539.38;;;-142.31;100.00
42945;BME280;28584;42.636;23.294;2023-09-18T04:25:47;67539.38;;;-142.31;100.00
42945;BME280;28584;42.636;23.294;2023-09-18T04:28:16;67539.38;;;-142.31;100.00
42945;BME280;28584;42.636;23.294;2023-09-18T04:30:42;67539.38;;;-142.31;100.00
42945;BME280;28584;42.636;23.294;2023-09-18T04:33:08;67539.38;;;-142.31;100.00
42945;BME280;28584;42.636;23.294;2023-09-18T04:35:33;67539.38;;;-142.31;100.00
42945;BME280;28584;42.636;23.294;2023-09-18T04:37:59;67539.38;;;-142.31;100.00
42945;BME280;28584;42.636;23.294;2023-09-18T04:40:25;67539.38;;;-142.31;100.00
42945;BME280;28584;42.636;23.294;2023-09-18T04:42:52;67539.38;;;-142.31;100.00
42945;BME280;28584;42.636;23.294;2023-09-18T04:45:17;67539.38;;;-142.31;100.00
42945;BME280;28584;42.636;23.294;2023-09-18T04:47:42;67539.38;;;-142.31;100.00
42945;BME280;28584;42.636;23.294;2023-09-18T04:50:08;67539.38;;;-142.31;100.00
42945;BME280;28584;42.636;23.294;2023-09-18T04:52:35;67539.38;;;-142.31;100.00
42945;BME280;28584;42.636;23.294;2023-09-18T04:55:01;67539.38;;;-142.31;100.00
42945;BME280;28584;42.636;23.294;2023-09-18T04:57:27;67539.38;;;-142.31;100.00
42945;BME280;28584;42.636;23.294;2023-09-18T04:59:52;67539.38;;;-142.31;100.00
42945;BME280;28584;42.636;23.294;2023-09-18T05:02:18;67539.38;;;-142.31;100.00
42945;BME280;28584;42.636;23.294;2023-09-18T05:04:43;67539.38;;;-142.31;100.00
42945;BME280;28584;42.636;23.294;2023-09-18T05:07:10;67539.38;;;-142.31;100.00
42945;BME280;28584;42.636;23.294;2023-09-18T05:09:35;67539.38;;;-142.31;100.00
42945;BME280;28584;42.636;23.294;2023-09-18T05:12:04;67539.38;;;-142.31;100.00
42945;BME280;28584;42.636;23.294;2023-09-18T05:14:29;67539.38;;;-142.31;100.00
42945;BME280;28584;42.636;23.294;2023-09-18T05:16:55;67539.38;;;-142.31;100.00
42945;BME280;28584;42.636;23.294;2023-09-18T05:19:20;67539.38;;;-142.31;100.00
42945;BME280;28584;42.636;23.294;2023-09-18T05:21:46;67539.38;;;-142.31;100.00
42945;BME280;28584;42.636;23.294;2023-09-18T05:24:13;67539.38;;;-142.31;100.00
42945;BME280;28584;42.636;23.294;2023-09-18T05:26:38;67539.38;;;-142.31;100.00
42945;BME280;28584;42.636;23.294;2023-09-18T05:29:04;67539.38;;;-142.31;100.00
42945;BME280;28584;42.636;23.294;2023-09-18T05:31:29;67539.38;;;-142.31;100.00
42945;BME280;28584;42.636;23.294;2023-09-18T05:37:54;163130.84;;;17.16;100.00
42945;BME280;28584;42.636;23.294;2023-09-18T05:40:22;163175.13;;;17.33;100.00
42945;BME280;28584;42.636;23.294;2023-09-18T05:42:48;163144.25;;;17.21;100.00
42945;BME280;28584;42.636;23.294;2023-09-18T05:45:14;163102.63;;;17.06;100.00
42945;BME280;28584;42.636;23.294;2023-09-18T05:47:42;163019.41;;;16.75;100.00
42945;BME280;28584;42.636;23.294;2023-09-18T05:50:09;162929.44;;;16.41;100.00
42945;BME280;28584;42.636;23.294;2023-09-18T05:52:35;163066.41;;;16.92;100.00
42945;BME280;28584;42.636;23.294;2023-09-18T05:55:02;162965.72;;;16.55;100.00
42945;BME280;28584;42.636;23.294;2023-09-18T05:57:27;163016.75;;;16.74;100.00
42945;BME280;28584;42.636;23.294;2023-09-18T05:59:57;163010.03;;;16.71;100.00
42945;BME280;28584;42.636;23.294;2023-09-18T06:02:23;163070.44;;;16.94;100.00
42945;BME280;28584;42.636;23.294;2023-09-18T06:04:57;163171.09;;;17.31;100.00
42945;BME280;28584;42.636;23.294;2023-09-18T06:07:25;163361.88;;;18.02;100.00
42945;BME280;28584;42.636;23.294;2023-09-18T06:09:51;163537.91;;;18.68;100.00
42945;BME280;28584;42.636;23.294;2023-09-18T06:12:16;163637.41;;;19.05;100.00
42945;BME280;28584;42.636;23.294;2023-09-18T06:14:42;163543.31;;;18.70;100.00
42945;BME280;28584;42.636;23.294;2023-09-18T06:17:08;163532.53;;;18.66;100.00
42945;BME280;28584;42.636;23.294;2023-09-18T06:19:34;163691.19;;;19.25;100.00
42945;BME280;28584;42.636;23.294;2023-09-18T06:22:00;163723.47;;;19.37;100.00
42945;BME280;28584;42.636;23.294;2023-09-18T06:24:25;163774.56;;;19.56;100.00
42945;BME280;28584;42.636;23.294;2023-09-18T06:26:51;163588.97;;;18.87;100.00
42945;BME280;28584;42.636;23.294;2023-09-18T06:29:16;163583.63;;;18.85;100.00
42945;BME280;28584;42.636;23.294;2023-09-18T06:31:42;163761.13;;;19.51;100.00
42945;BME280;28584;42.636;23.294;2023-09-18T06:34:07;163887.56;;;19.98;100.00
42945;BME280;28584;42.636;23.294;2023-09-18T06:36:33;163841.84;;;19.81;100.00
42945;BME280;28584;42.636;23.294;2023-09-18T06:38:58;164113.66;;;20.82;100.00
42945;BME280;28584;42.636;23.294;2023-09-18T06:41:24;164089.41;;;20.73;100.00
42945;BME280;28584;42.636;23.294;2023-09-18T06:43:49;163945.44;;;20.20;100.00
42945;BME280;28584;42.636;23.294;2023-09-18T06:46:15;164050.41;;;20.59;100.00
42945;BME280;28584;42.636;23.294;2023-09-18T06:48:41;164001.94;;;20.41;100.00
42945;BME280;28584;42.636;23.294;2023-09-18T06:51:10;164032.88;;;20.52;100.00
42945;BME280;28584;42.636;23.294;2023-09-18T06:53:36;164059.81;;;20.62;100.00
42945;BME280;28584;42.636;23.294;2023-09-18T06:56:01;164261.78;;;21.37;100.00
42945;BME280;28584;42.636;23.294;2023-09-18T06:58:27;164517.69;;;22.33;100.00
42945;BME280;28584;42.636;23.294;2023-09-18T07:00:52;164664.63;;;22.87;100.00
42945;BME280;28584;42.636;23.294;2023-09-18T07:03:18;164664.63;;;22.87;93.24
42945;BME280;28584;42.636;23.294;2023-09-18T07:05:43;164701.03;;;23.01;94.94
42945;BME280;28584;42.636;23.294;2023-09-18T07:08:09;164775.19;;;23.28;87.65
42945;BME280;28584;42.636;23.294;2023-09-18T07:10:38;164674.06;;;22.91;88.72
42945;BME280;28584;42.636;23.294;2023-09-18T07:13:03;164602.66;;;22.64;94.17
42945;BME280;28584;42.636;23.294;2023-09-18T07:15:29;164594.56;;;22.61;94.10
42945;BME280;28584;42.636;23.294;2023-09-18T07:17:54;164568.97;;;22.52;95.93
42945;BME280;28584;42.636;23.294;2023-09-18T07:20:20;164639.03;;;22.78;95.63
42945;BME280;28584;42.636;23.294;2023-09-18T07:22:48;164781.97;;;23.31;89.57
42945;BME280;28584;42.636;23.294;2023-09-18T07:25:14;164862.84;;;23.61;80.79
42945;BME280;28584;42.636;23.294;2023-09-18T07:27:39;164911.38;;;23.79;78.69
42945;BME280;28584;42.636;23.294;2023-09-18T07:30:10;164769.84;;;23.26;78.90
42945;BME280;28584;42.636;23.294;2023-09-18T07:32:36;164520.38;;;22.34;92.49
42945;BME280;28584;42.636;23.294;2023-09-18T07:35:01;164630.94;;;22.75;92.84
42945;BME280;28584;42.636;23.294;2023-09-18T07:37:27;164396.47;;;21.88;98.53
42945;BME280;28584;42.636;23.294;2023-09-18T07:39:53;164426.09;;;21.99;100.00
42945;BME280;28584;42.636;23.294;2023-09-18T07:42:18;164430.13;;;22.00;100.00
42945;BME280;28584;42.636;23.294;2023-09-18T07:44:44;164455.78;;;22.10;100.00
42945;BME280;28584;42.636;23.294;2023-09-18T07:47:09;164603.97;;;22.65;100.00
42945;BME280;28584;42.636;23.294;2023-09-18T07:49:34;164628.25;;;22.74;94.46
42945;BME280;28584;42.636;23.294;2023-09-18T07:52:00;164730.69;;;23.12;87.80
42945;BME280;28584;42.636;23.294;2023-09-18T07:54:25;164741.44;;;23.16;85.66
42945;BME280;28584;42.636;23.294;2023-09-18T07:56:51;164691.56;;;22.97;86.37
42945;BME280;28584;42.636;23.294;2023-09-18T07:59:16;164763.06;;;23.24;86.78
42945;BME280;28584;42.636;23.294;2023-09-18T08:01:42;164911.38;;;23.79;80.71
42945;BME280;28584;42.636;23.294;2023-09-18T08:04:07;164978.88;;;24.04;73.54
42945;BME280;28584;42.636;23.294;2023-09-18T08:06:33;164932.97;;;23.87;74.15
42945;BME280;28584;42.636;23.294;2023-09-18T08:08:58;165015.28;;;24.18;72.91
42945;BME280;28584;42.636;23.294;2023-09-18T08:11:24;165116.44;;;24.55;72.24
42945;BME280;28584;42.636;23.294;2023-09-18T08:13:49;165205.56;;;24.88;67.10
42945;BME280;28584;42.636;23.294;2023-09-18T08:16:14;165190.72;;;24.83;64.64
42945;BME280;28584;42.636;23.294;2023-09-18T08:18:40;165221.78;;;24.94;65.89
42945;BME280;28584;42.636;23.294;2023-09-18T08:21:07;165278.47;;;25.15;62.27
42945;BME280;28584;42.636;23.294;2023-09-18T08:23:35;165436.44;;;25.74;61.14
42945;BME280;28584;42.636;23.294;2023-09-18T08:26:00;165364.88;;;25.47;60.47
42945;BME280;28584;42.636;23.294;2023-09-18T08:28:26;165393.19;;;25.58;59.42
42945;BME280;28584;42.636;23.294;2023-09-18T08:30:51;165332.47;;;25.35;59.46
42945;BME280;28584;42.636;23.294;2023-09-18T08:33:17;165216.34;;;24.92;60.61
42945;BME280;28584;42.636;23.294;2023-09-18T08:35:42;165121.84;;;24.57;64.79
42945;BME280;28584;42.636;23.294;2023-09-18T08:38:09;165175.91;;;24.77;61.95
42945;BME280;28584;42.636;23.294;2023-09-18T08:40:34;165081.41;;;24.42;62.96
42945;BME280;28584;42.636;23.294;2023-09-18T08:43:00;165127.28;;;24.59;63.12
42945;BME280;28584;42.636;23.294;2023-09-18T08:45:37;165100.28;;;24.49;63.19
42945;BME280;28584;42.636;23.294;2023-09-18T08:48:03;165108.34;;;24.52;63.17
42945;BME280;28584;42.636;23.294;2023-09-18T08:50:30;165113.75;;;24.54;63.33
42945;BME280;28584;42.636;23.294;2023-09-18T08:52:55;165151.59;;;24.68;63.23
42945;BME280;28584;42.636;23.294;2023-09-18T08:55:21;165157.00;;;24.70;61.67
42945;BME280;28584;42.636;23.294;2023-09-18T08:57:48;165223.09;;;24.95;60.87
42945;BME280;28584;42.636;23.294;2023-09-18T09:00:14;165165.09;;;24.73;60.46
42945;BME280;28584;42.636;23.294;2023-09-18T09:02:44;165162.38;;;24.72;60.29
42945;BME280;28584;42.636;23.294;2023-09-18T09:05:10;165192.03;;;24.83;60.26
42945;BME280;28584;42.636;23.294;2023-09-18T09:07:35;165138.13;;;24.63;61.49
42945;BME280;28584;42.636;23.294;2023-09-18T09:10:00;165057.09;;;24.33;62.42
42945;BME280;28584;42.636;23.294;2023-09-18T09:12:49;164794.06;;;23.35;66.20
42945;BME280;28584;42.636;23.294;2023-09-18T09:15:15;164734.72;;;23.13;74.08
42945;BME280;28584;42.636;23.294;2023-09-18T09:17:42;164760.38;;;23.23;71.15
42945;BME280;28584;42.636;23.294;2023-09-18T09:20:12;164754.97;;;23.21;69.20
42945;BME280;28584;42.636;23.294;2023-09-18T09:22:39;164733.34;;;23.13;68.13
42945;BME280;28584;42.636;23.294;2023-09-18T09:25:24;164701.03;;;23.01;69.32
42945;BME280;28584;42.636;23.294;2023-09-18T09:27:52;164694.31;;;22.98;70.90
42945;BME280;28584;42.636;23.294;2023-09-18T09:30:23;164787.34;;;23.33;63.63
42945;BME280;28584;42.636;23.294;2023-09-18T09:32:50;164914.09;;;23.80;62.60
42945;BME280;28584;42.636;23.294;2023-09-18T09:35:21;67539.38;;;-142.31;100.00
42945;BME280;28584;42.636;23.294;2023-09-18T09:37:53;67539.38;;;-142.31;100.00
42945;BME280;28584;42.636;23.294;2023-09-18T09:40:21;67539.38;;;-142.31;100.00
42945;BME280;28584;42.636;23.294;2023-09-18T09:42:47;67539.38;;;-142.31;100.00
42945;BME280;28584;42.636;23.294;2023-09-18T09:45:14;67539.38;;;-142.31;100.00
42945;BME280;28584;42.636;23.294;2023-09-18T09:47:44;67539.38;;;-142.31;100.00
42945;BME280;28584;42.636;23.294;2023-09-18T09:50:16;67539.38;;;-142.31;100.00
42945;BME280;28584;42.636;23.294;2023-09-18T09:52:47;67539.38;;;-142.31;100.00
42945;BME280;28584;42.636;23.294;2023-09-18T09:55:31;67539.38;;;-142.31;100.00
42945;BME280;28584;42.636;23.294;2023-09-18T09:58:00;67539.38;;;-142.31;100.00
42945;BME280;28584;42.636;23.294;2023-09-18T10:00:30;67539.38;;;-142.31;100.00
42945;BME280;28584;42.636;23.294;2023-09-18T10:03:00;67539.38;;;-142.31;100.00
42945;BME280;28584;42.636;23.294;2023-09-18T10:05:31;67539.38;;;-142.31;100.00
42945;BME280;28584;42.636;23.294;2023-09-18T10:07:59;67539.38;;;-142.31;100.00
42945;BME280;28584;42.636;23.294;2023-09-18T10:10:30;67539.38;;;-142.31;100.00
42945;BME280;28584;42.636;23.294;2023-09-18T10:13:09;67539.38;;;-142.31;100.00
42945;BME280;28584;42.636;23.294;2023-09-18T10:15:35;67539.38;;;-142.31;100.00
42945;BME280;28584;42.636;23.294;2023-09-18T10:18:05;67539.38;;;-142.31;100.00
42945;BME280;28584;42.636;23.294;2023-09-18T10:20:37;67539.38;;;-142.31;100.00
42945;BME280;28584;42.636;23.294;2023-09-18T10:23:18;67539.38;;;-142.31;100.00
42945;BME280;28584;42.636;23.294;2023-09-18T10:25:51;67539.38;;;-142.31;100.00
42945;BME280;28584;42.636;23.294;2023-09-18T10:28:20;67539.38;;;-142.31;100.00
42945;BME280;28584;42.636;23.294;2023-09-18T10:30:47;67539.38;;;-142.31;100.00
42945;BME280;28584;42.636;23.294;2023-09-18T10:33:13;67539.38;;;-142.31;100.00
42945;BME280;28584;42.636;23.294;2023-09-18T10:35:40;67539.38;;;-142.31;100.00
42945;BME280;28584;42.636;23.294;2023-09-18T10:38:07;67539.38;;;-142.31;100.00
42945;BME280;28584;42.636;23.294;2023-09-18T10:40:34;67539.38;;;-142.31;100.00
42945;BME280;28584;42.636;23.294;2023-09-18T10:43:02;67539.38;;;-142.31;100.00
42945;BME280;28584;42.636;23.294;2023-09-18T10:45:29;67539.38;;;-142.31;100.00
42945;BME280;28584;42.636;23.294;2023-09-18T10:47:56;67539.38;;;-142.31;100.00
42945;BME280;28584;42.636;23.294;2023-09-18T10:50:26;67539.38;;;-142.31;100.00
42945;BME280;28584;42.636;23.294;2023-09-18T10:52:52;67539.38;;;-142.31;100.00
42945;BME280;28584;42.636;23.294;2023-09-18T10:55:18;67539.38;;;-142.31;100.00
42945;BME280;28584;42.636;23.294;2023-09-18T10:57:54;67539.38;;;-142.31;100.00
42945;BME280;28584;42.636;23.294;2023-09-18T11:00:31;67539.38;;;-142.31;100.00
42945;BME280;28584;42.636;23.294;2023-09-18T11:05:37;67539.38;;;-142.31;100.00
42945;BME280;28584;42.636;23.294;2023-09-18T11:08:35;67539.38;;;-142.31;100.00
42945;BME280;28584;42.636;23.294;2023-09-18T11:11:10;67539.38;;;-142.31;100.00
42945;BME280;28584;42.636;23.294;2023-09-18T11:13:47;67539.38;;;-142.31;100.00
42945;BME280;28584;42.636;23.294;2023-09-18T11:16:15;67539.38;;;-142.31;100.00
42945;BME280;28584;42.636;23.294;2023-09-18T11:18:41;67539.38;;;-142.31;100.00
42945;BME280;28584;42.636;23.294;2023-09-18T11:21:11;67539.38;;;-142.31;100.00
42945;BME280;28584;42.636;23.294;2023-09-18T11:23:38;67539.38;;;-142.31;100.00
42945;BME280;28584;42.636;23.294;2023-09-18T11:26:08;67539.38;;;-142.31;100.00
42945;BME280;28584;42.636;23.294;2023-09-18T11:28:34;67539.38;;;-142.31;100.00
42945;BME280;28584;42.636;23.294;2023-09-18T11:31:00;67539.38;;;-142.31;100.00
42945;BME280;28584;42.636;23.294;2023-09-18T11:33:33;67539.38;;;-142.31;100.00
42945;BME280;28584;42.636;23.294;2023-09-18T11:36:11;67539.38;;;-142.31;100.00
42945;BME280;28584;42.636;23.294;2023-09-18T11:38:53;67539.38;;;-142.31;100.00
42945;BME280;28584;42.636;23.294;2023-09-18T11:41:22;67539.38;;;-142.31;100.00
42945;BME280;28584;42.636;23.294;2023-09-18T11:43:47;67539.38;;;-142.31;100.00
42945;BME280;28584;42.636;23.294;2023-09-18T11:46:18;67539.38;;;-142.31;100.00
42945;BME280;28584;42.636;23.294;2023-09-18T11:48:44;67539.38;;;-142.31;100.00
42945;BME280;28584;42.636;23.294;2023-09-18T11:51:10;67539.38;;;-142.31;100.00
42945;BME280;28584;42.636;23.294;2023-09-18T11:53:38;67539.38;;;-142.31;100.00
42945;BME280;28584;42.636;23.294;2023-09-18T11:56:10;67539.38;;;-142.31;100.00
42945;BME280;28584;42.636;23.294;2023-09-18T11:58:50;67539.38;;;-142.31;100.00
42945;BME280;28584;42.636;23.294;2023-09-18T12:01:18;67539.38;;;-142.31;100.00
42945;BME280;28584;42.636;23.294;2023-09-18T12:03:44;67539.38;;;-142.31;100.00
42945;BME280;28584;42.636;23.294;2023-09-18T12:06:10;67539.38;;;-142.31;100.00
42945;BME280;28584;42.636;23.294;2023-09-18T12:08:40;67539.38;;;-142.31;100.00
42945;BME280;28584;42.636;23.294;2023-09-18T12:11:06;67539.38;;;-142.31;100.00
42945;BME280;28584;42.636;23.294;2023-09-18T12:13:32;67539.38;;;-142.31;100.00
42945;BME280;28584;42.636;23.294;2023-09-18T12:16:03;67539.38;;;-142.31;100.00
42945;BME280;28584;42.636;23.294;2023-09-18T12:18:32;67539.38;;;-142.31;100.00
42945;BME280;28584;42.636;23.294;2023-09-18T12:21:01;67539.38;;;-142.31;100.00
42945;BME280;28584;42.636;23.294;2023-09-18T12:23:29;67539.38;;;-142.31;100.00
42945;BME280;28584;42.636;23.294;2023-09-18T12:26:01;67539.38;;;-142.31;100.00
42945;BME280;28584;42.636;23.294;2023-09-18T12:28:27;67539.38;;;-142.31;100.00
42945;BME280;28584;42.636;23.294;2023-09-18T12:30:54;67539.38;;;-142.31;100.00
42945;BME280;28584;42.636;23.294;2023-09-18T12:33:22;67539.38;;;-142.31;100.00
42945;BME280;28584;42.636;23.294;2023-09-18T12:35:49;67539.38;;;-142.31;100.00